Time;durP1;ratioP1;P1;durP2;ratioP2;P2;SDS_P1;SDS_P2;PMS_P1;PMS_P2;Temp;Humidity;BMP_temperature;BMP_pressure;BME280_temperature;BME280_humidity;BME280_pressure;Samples;Min_cycle;Max_cycle;Signal;HPM_P1;HPM_P2
2021/11/13 00:00:03;;;;;;;19.50;11.88;;;;;;;;;;5001290;28;20208;-78
2021/11/13 00:02:30;;;;;;;19.02;13.10;;;;;;;;;;5012766;28;20216;-80
2021/11/13 00:04:57;;;;;;;18.70;12.65;;;;;;;;;;5012631;28;20203;-78
2021/11/13 00:07:25;;;;;;;17.23;12.52;;;;;;;;;;5011898;28;20205;-77
2021/11/13 00:09:53;;;;;;;18.20;11.95;;;;;;;;;;5032582;28;20199;-78
2021/11/13 00:12:20;;;;;;;17.90;12.68;;;;;;;;;;5034398;28;20640;-79
2021/11/13 00:14:47;;;;;;;20.90;13.48;;;;;;;;;;5034283;28;20692;-78
2021/11/13 00:17:14;;;;;;;18.02;12.60;;;;;;;;;;5036027;28;20556;-80
2021/11/13 00:19:42;;;;;;;21.90;13.10;;;;;;;;;;5039398;28;20680;-78
2021/11/13 00:22:09;;;;;;;23.92;13.15;;;;;;;;;;5038189;28;20223;-78
2021/11/13 00:24:37;;;;;;;20.50;13.23;;;;;;;;;;5012411;28;20558;-79
2021/11/13 00:27:05;;;;;;;16.02;12.20;;;;;;;;;;5012013;28;20675;-77
2021/11/13 00:29:32;;;;;;;16.73;12.40;;;;;;;;;;5012617;28;20306;-78
2021/11/13 00:31:59;;;;;;;17.95;12.40;;;;;;;;;;5023022;28;20225;-78
2021/11/13 00:34:26;;;;;;;17.23;11.65;;;;;;;;;;5034100;28;20575;-77
2021/11/13 00:36:53;;;;;;;17.80;11.07;;;;;;;;;;5034187;28;20662;-80
2021/11/13 00:39:21;;;;;;;16.45;11.75;;;;;;;;;;5032985;28;20865;-78
2021/11/13 00:41:50;;;;;;;19.83;12.05;;;;;;;;;;5036554;28;20219;-77
2021/11/13 00:44:17;;;;;;;16.08;12.15;;;;;;;;;;5011312;28;20195;-79
2021/11/13 00:46:44;;;;;;;17.42;10.77;;;;;;;;;;5031154;28;20222;-78
2021/11/13 00:49:12;;;;;;;19.13;12.30;;;;;;;;;;5031562;28;20564;-78
2021/11/13 00:51:39;;;;;;;15.43;12.30;;;;;;;;;;5030445;28;20237;-78
2021/11/13 00:54:07;;;;;;;15.23;11.05;;;;;;;;;;5034037;28;20197;-77
2021/11/13 00:56:34;;;;;;;17.65;12.25;;;;;;;;;;5018772;28;20253;-77
2021/11/13 00:59:02;;;;;;;15.55;11.30;;;;;;;;;;5026141;28;20215;-77
2021/11/13 01:01:30;;;;;;;20.13;11.75;;;;;;;;;;5011843;28;20562;-77
2021/11/13 01:03:57;;;;;;;15.25;10.65;;;;;;;;;;5011651;28;20192;-77
2021/11/13 01:06:24;;;;;;;17.15;11.32;;;;;;;;;;5028943;28;20222;-78
2021/11/13 01:08:52;;;;;;;15.77;10.55;;;;;;;;;;5023282;28;20204;-80
2021/11/13 01:11:19;;;;;;;15.10;10.10;;;;;;;;;;5030244;28;20215;-77
2021/11/13 01:13:47;;;;;;;15.95;10.63;;;;;;;;;;5033458;28;20200;-79
2021/11/13 01:16:16;;;;;;;16.88;11.45;;;;;;;;;;5034113;28;20564;-78
2021/11/13 01:18:43;;;;;;;16.13;10.15;;;;;;;;;;5035825;28;20613;-78
2021/11/13 01:21:10;;;;;;;17.45;10.80;;;;;;;;;;5032537;28;20684;-77
2021/11/13 01:23:37;;;;;;;17.08;10.63;;;;;;;;;;5029995;28;20671;-76
2021/11/13 01:26:05;;;;;;;14.80;11.10;;;;;;;;;;5028819;28;20206;-78
2021/11/13 01:28:32;;;;;;;16.65;11.13;;;;;;;;;;4994105;28;20532;-78
2021/11/13 01:30:59;;;;;;;16.67;11.35;;;;;;;;;;5020061;28;20219;-76
2021/11/13 01:33:28;;;;;;;14.98;10.40;;;;;;;;;;5028419;28;20206;-77
2021/11/13 01:35:55;;;;;;;16.60;10.50;;;;;;;;;;4995746;28;20311;-76
2021/11/13 01:38:22;;;;;;;17.38;11.13;;;;;;;;;;5021760;28;20282;-77
2021/11/13 01:40:49;;;;;;;15.52;10.52;;;;;;;;;;5035186;28;20195;-77
2021/11/13 01:43:17;;;;;;;15.20;11.52;;;;;;;;;;5045596;28;20194;-77
2021/11/13 01:45:44;;;;;;;16.50;11.00;;;;;;;;;;5051113;28;20206;-77
2021/11/13 01:48:12;;;;;;;16.58;10.43;;;;;;;;;;5032422;28;20194;-76
2021/11/13 01:50:41;;;;;;;21.33;11.85;;;;;;;;;;5050679;28;20198;-77
2021/11/13 01:53:10;;;;;;;17.20;11.73;;;;;;;;;;5042714;28;20227;-76
2021/11/13 01:55:38;;;;;;;13.88;10.15;;;;;;;;;;5018022;28;20233;-76
2021/11/13 01:58:05;;;;;;;17.65;11.43;;;;;;;;;;5014998;28;20244;-78
2021/11/13 02:00:34;;;;;;;16.33;10.23;;;;;;;;;;5042837;28;20848;-77
2021/11/13 02:03:01;;;;;;;14.30;11.48;;;;;;;;;;5054636;28;20229;-77
2021/11/13 02:05:28;;;;;;;17.58;12.25;;;;;;;;;;5041528;28;20203;-77
2021/11/13 02:07:57;;;;;;;17.77;11.60;;;;;;;;;;5014369;28;20199;-77
2021/11/13 02:10:25;;;;;;;17.38;11.70;;;;;;;;;;5016397;28;20192;-77
2021/11/13 02:12:53;;;;;;;17.17;11.38;;;;;;;;;;5021455;28;20211;-76
2021/11/13 02:15:20;;;;;;;18.27;11.18;;;;;;;;;;5039232;28;20229;-77
2021/11/13 02:17:48;;;;;;;13.30;10.93;;;;;;;;;;5011465;28;20552;-77
2021/11/13 02:20:19;;;;;;;16.95;11.27;;;;;;;;;;5013989;28;20251;-78
2021/11/13 02:22:46;;;;;;;18.45;11.60;;;;;;;;;;5014317;28;20216;-78
2021/11/13 02:25:15;;;;;;;14.73;11.00;;;;;;;;;;5013308;28;20200;-78
2021/11/13 02:27:43;;;;;;;17.55;12.05;;;;;;;;;;5027942;28;20203;-77
2021/11/13 02:30:10;;;;;;;16.30;11.65;;;;;;;;;;5037937;28;20195;-77
2021/11/13 02:32:38;;;;;;;22.08;11.35;;;;;;;;;;5018923;28;20216;-78
2021/11/13 02:35:05;;;;;;;17.55;11.20;;;;;;;;;;5028683;28;20303;-77
2021/11/13 02:37:35;;;;;;;17.33;12.10;;;;;;;;;;5013542;28;20196;-77
2021/11/13 02:40:02;;;;;;;17.88;12.80;;;;;;;;;;5014102;28;20246;-77
2021/11/13 02:42:30;;;;;;;18.23;12.48;;;;;;;;;;5014091;28;20220;-77
2021/11/13 02:44:57;;;;;;;17.42;12.00;;;;;;;;;;5025367;28;20569;-77
2021/11/13 02:47:24;;;;;;;16.27;11.40;;;;;;;;;;5038378;28;20659;-77
2021/11/13 02:49:52;;;;;;;17.55;12.02;;;;;;;;;;5033978;28;20195;-77
2021/11/13 02:52:19;;;;;;;17.02;12.25;;;;;;;;;;5033458;28;20216;-77
2021/11/13 02:54:50;;;;;;;18.92;12.52;;;;;;;;;;5032024;28;20552;-77
2021/11/13 02:57:17;;;;;;;16.48;11.25;;;;;;;;;;5034721;28;20195;-78
2021/11/13 02:59:45;;;;;;;16.50;10.90;;;;;;;;;;5036259;28;20191;-77
2021/11/13 03:02:12;;;;;;;17.70;10.75;;;;;;;;;;5039077;28;20202;-78
2021/11/13 03:04:39;;;;;;;17.90;12.15;;;;;;;;;;5046218;28;20195;-78
2021/11/13 03:07:07;;;;;;;14.13;9.85;;;;;;;;;;5043670;28;20422;-77
2021/11/13 03:09:34;;;;;;;16.27;11.82;;;;;;;;;;5013771;28;20200;-77
2021/11/13 03:12:03;;;;;;;15.18;10.40;;;;;;;;;;5013663;28;20226;-78
2021/11/13 03:14:31;;;;;;;18.85;12.75;;;;;;;;;;5027119;28;20212;-77
2021/11/13 03:17:01;;;;;;;14.68;10.70;;;;;;;;;;5037754;28;20227;-77
2021/11/13 03:19:28;;;;;;;18.35;11.88;;;;;;;;;;5017167;28;20595;-78
2021/11/13 03:21:56;;;;;;;16.40;11.43;;;;;;;;;;5023744;28;20227;-78
2021/11/13 03:24:25;;;;;;;15.57;11.90;;;;;;;;;;4996433;28;20211;-77
2021/11/13 03:26:52;;;;;;;21.50;12.98;;;;;;;;;;5013522;28;20203;-77
2021/11/13 03:29:22;;;;;;;16.88;11.45;;;;;;;;;;5025396;28;20667;-77
2021/11/13 03:31:51;;;;;;;18.92;11.52;;;;;;;;;;5033963;28;20650;-78
2021/11/13 03:34:18;;;;;;;19.90;12.98;;;;;;;;;;5035591;28;20199;-78
2021/11/13 03:36:45;;;;;;;17.70;12.38;;;;;;;;;;5035693;28;20219;-77
2021/11/13 03:39:12;;;;;;;17.63;11.73;;;;;;;;;;5038700;28;20202;-77
2021/11/13 03:41:39;;;;;;;15.25;11.98;;;;;;;;;;5030048;28;20207;-78
2021/11/13 03:44:07;;;;;;;20.70;12.93;;;;;;;;;;5032047;28;20198;-77
2021/11/13 03:46:35;;;;;;;18.98;12.93;;;;;;;;;;5032091;28;20714;-77
2021/11/13 03:49:02;;;;;;;18.98;12.85;;;;;;;;;;5031636;28;20202;-78
2021/11/13 03:51:29;;;;;;;18.45;13.38;;;;;;;;;;5031576;28;20237;-77
2021/11/13 03:53:57;;;;;;;28.08;13.70;;;;;;;;;;5034635;28;20195;-77
2021/11/13 03:56:24;;;;;;;21.38;12.70;;;;;;;;;;5034101;28;20219;-78
2021/11/13 03:58:51;;;;;;;22.50;14.90;;;;;;;;;;5036048;28;20202;-77
2021/11/13 04:01:18;;;;;;;22.00;14.00;;;;;;;;;;5019665;28;20211;-78
2021/11/13 04:03:47;;;;;;;20.08;13.48;;;;;;;;;;5049205;28;20191;-77
2021/11/13 04:06:14;;;;;;;25.08;14.52;;;;;;;;;;5034323;28;20204;-78
2021/11/13 04:08:41;;;;;;;20.63;14.27;;;;;;;;;;5012793;28;20196;-78
2021/11/13 04:11:08;;;;;;;28.15;15.77;;;;;;;;;;5012486;28;20599;-78
2021/11/13 04:13:35;;;;;;;24.05;15.10;;;;;;;;;;5024760;28;20207;-78
2021/11/13 04:16:02;;;;;;;23.02;15.18;;;;;;;;;;5037887;28;20210;-77
2021/11/13 04:18:29;;;;;;;23.63;14.90;;;;;;;;;;5032673;28;20192;-78
2021/11/13 04:20:58;;;;;;;22.63;14.75;;;;;;;;;;5012229;28;20715;-79
2021/11/13 04:23:25;;;;;;;25.40;15.90;;;;;;;;;;5012474;28;20200;-78
2021/11/13 04:25:52;;;;;;;23.80;15.77;;;;;;;;;;5031573;28;20199;-77
2021/11/13 04:28:19;;;;;;;24.38;16.00;;;;;;;;;;5029048;28;20221;-78
2021/11/13 04:30:47;;;;;;;23.50;15.05;;;;;;;;;;5036735;28;20557;-78
2021/11/13 04:33:14;;;;;;;29.05;16.75;;;;;;;;;;5036037;28;20561;-77
2021/11/13 04:36:00;;;;;;;30.02;16.60;;;;;;;;;;5031063;28;20211;-78
2021/11/13 04:38:28;;;;;;;24.55;14.70;;;;;;;;;;5031302;28;20195;-77
2021/11/13 04:40:56;;;;;;;29.83;16.27;;;;;;;;;;5012699;28;20199;-77
2021/11/13 04:43:23;;;;;;;32.58;16.58;;;;;;;;;;5018685;28;20222;-78
2021/11/13 04:45:50;;;;;;;28.77;16.40;;;;;;;;;;5033899;28;20209;-78
2021/11/13 04:48:17;;;;;;;27.30;16.02;;;;;;;;;;5035984;28;20188;-77
2021/11/13 04:50:44;;;;;;;32.00;16.88;;;;;;;;;;5031036;28;20692;-77
2021/11/13 04:53:11;;;;;;;35.97;17.63;;;;;;;;;;5029947;28;20223;-78
2021/11/13 04:55:40;;;;;;;32.78;17.67;;;;;;;;;;5029316;28;20195;-76
2021/11/13 04:58:09;;;;;;;27.33;16.63;;;;;;;;;;5028918;28;20238;-77
2021/11/13 05:00:36;;;;;;;28.58;17.30;;;;;;;;;;5032595;28;20199;-78
2021/11/13 05:03:04;;;;;;;27.40;18.17;;;;;;;;;;5035233;28;20209;-77
2021/11/13 05:05:31;;;;;;;28.58;16.70;;;;;;;;;;5023754;28;20208;-76
2021/11/13 05:07:58;;;;;;;28.67;18.45;;;;;;;;;;5051278;28;20567;-77
2021/11/13 05:10:26;;;;;;;29.48;17.23;;;;;;;;;;5051113;28;20205;-76
2021/11/13 05:12:54;;;;;;;30.13;16.65;;;;;;;;;;5017616;28;20547;-78
2021/11/13 05:15:21;;;;;;;31.77;17.30;;;;;;;;;;5015382;28;20211;-78
2021/11/13 05:17:49;;;;;;;31.10;17.65;;;;;;;;;;5036444;28;20590;-77
2021/11/13 05:20:18;;;;;;;33.55;19.02;;;;;;;;;;5019597;28;20191;-77
2021/11/13 05:22:46;;;;;;;28.98;18.10;;;;;;;;;;5019517;28;20220;-77
2021/11/13 05:25:15;;;;;;;28.05;18.35;;;;;;;;;;5011132;28;20206;-78
2021/11/13 05:27:42;;;;;;;33.00;17.27;;;;;;;;;;5010956;28;20199;-77
2021/11/13 05:30:12;;;;;;;33.17;17.00;;;;;;;;;;5010787;28;20202;-78
2021/11/13 05:32:40;;;;;;;28.33;16.35;;;;;;;;;;5013613;28;20216;-77
2021/11/13 05:35:08;;;;;;;28.48;17.13;;;;;;;;;;5014645;28;20196;-77
2021/11/13 05:37:41;;;;;;;29.25;18.70;;;;;;;;;;5016337;28;20219;-78
2021/11/13 05:40:10;;;;;;;29.85;16.08;;;;;;;;;;5034722;28;20199;-77
2021/11/13 05:42:37;;;;;;;28.23;16.75;;;;;;;;;;5041325;28;20691;-78
2021/11/13 05:45:06;;;;;;;32.10;17.73;;;;;;;;;;5050743;28;20237;-77
2021/11/13 05:47:35;;;;;;;27.20;17.25;;;;;;;;;;5031797;28;20418;-77
2021/11/13 05:50:02;;;;;;;26.42;16.65;;;;;;;;;;5020160;28;20191;-77
2021/11/13 05:52:29;;;;;;;26.27;15.45;;;;;;;;;;5030890;28;20310;-78
2021/11/13 05:54:57;;;;;;;31.73;17.52;;;;;;;;;;5033833;28;20200;-78
2021/11/13 05:57:24;;;;;;;28.98;17.38;;;;;;;;;;5027607;28;20223;-77
2021/11/13 05:59:51;;;;;;;29.42;16.60;;;;;;;;;;5033373;28;20200;-76
2021/11/13 06:02:19;;;;;;;32.65;16.02;;;;;;;;;;5036189;28;20219;-77
2021/11/13 06:04:47;;;;;;;38.13;18.48;;;;;;;;;;5034993;28;20191;-77
2021/11/13 06:07:14;;;;;;;29.60;17.45;;;;;;;;;;5026684;28;20199;-78
2021/11/13 06:09:42;;;;;;;33.83;17.50;;;;;;;;;;5011020;28;20743;-78
2021/11/13 06:12:09;;;;;;;34.75;16.02;;;;;;;;;;5011163;28;20302;-78
2021/11/13 06:14:36;;;;;;;28.98;16.92;;;;;;;;;;5010528;28;20207;-78
2021/11/13 06:17:04;;;;;;;29.60;17.85;;;;;;;;;;5032281;28;20219;-78
2021/11/13 06:19:31;;;;;;;33.63;16.80;;;;;;;;;;5034374;28;20287;-81
2021/11/13 06:22:00;;;;;;;29.02;17.50;;;;;;;;;;5028893;28;20208;-81
2021/11/13 06:24:28;;;;;;;32.60;16.55;;;;;;;;;;5013745;28;20285;-81
2021/11/13 06:26:55;;;;;;;37.28;15.90;;;;;;;;;;5028188;28;20196;-82
2021/11/13 06:29:22;;;;;;;25.15;16.50;;;;;;;;;;5001488;28;20200;-81
2021/11/13 06:31:50;;;;;;;30.38;17.30;;;;;;;;;;5011816;28;20231;-82
2021/11/13 06:34:17;;;;;;;29.77;16.92;;;;;;;;;;5012915;28;21184;-81
2021/11/13 06:36:45;;;;;;;26.33;16.25;;;;;;;;;;5036012;28;20215;-82
2021/11/13 06:39:13;;;;;;;27.85;15.77;;;;;;;;;;5031382;28;20669;-81
2021/11/13 06:41:40;;;;;;;29.33;17.88;;;;;;;;;;5031725;28;20212;-83
2021/11/13 06:44:08;;;;;;;29.98;16.63;;;;;;;;;;5034141;28;20221;-83
2021/11/13 06:46:35;;;;;;;27.67;16.23;;;;;;;;;;5034106;28;20203;-82
2021/11/13 06:49:02;;;;;;;26.35;16.05;;;;;;;;;;5036102;28;21011;-80
2021/11/13 06:51:29;;;;;;;24.00;14.52;;;;;;;;;;5022143;28;20280;-83
2021/11/13 06:53:57;;;;;;;32.17;17.13;;;;;;;;;;5036203;28;20191;-81
2021/11/13 06:56:25;;;;;;;25.50;15.45;;;;;;;;;;5027483;28;20334;-81
2021/11/13 06:58:53;;;;;;;32.55;17.02;;;;;;;;;;5013907;28;20550;-86
2021/11/13 07:01:20;;;;;;;28.17;16.90;;;;;;;;;;4997006;28;20219;-83
2021/11/13 07:03:47;;;;;;;23.90;14.65;;;;;;;;;;5034794;28;20261;-81
2021/11/13 07:06:14;;;;;;;24.58;15.45;;;;;;;;;;5036563;28;20195;-80
2021/11/13 07:08:41;;;;;;;26.85;15.32;;;;;;;;;;5035544;28;20191;-85
2021/11/13 07:11:08;;;;;;;26.38;15.90;;;;;;;;;;5032200;28;20258;-81
2021/11/13 07:13:37;;;;;;;32.65;16.42;;;;;;;;;;5032546;28;20425;-82
2021/11/13 07:16:04;;;;;;;27.13;15.10;;;;;;;;;;5032505;28;20223;-78
2021/11/13 07:18:32;;;;;;;25.92;15.55;;;;;;;;;;5031396;28;20225;-80
2021/11/13 07:21:00;;;;;;;23.85;14.95;;;;;;;;;;5033901;28;20313;-78
2021/11/13 07:23:29;;;;;;;23.45;14.60;;;;;;;;;;5035489;28;20692;-78
2021/11/13 07:25:56;;;;;;;30.25;14.07;;;;;;;;;;5013532;28;20195;-79
2021/11/13 07:28:34;;;;;;;22.33;13.27;;;;;;;;;;5029155;28;20203;-79
2021/11/13 07:31:03;;;;;;;27.02;14.95;;;;;;;;;;5002972;28;20219;-81
2021/11/13 07:33:30;;;;;;;24.23;13.80;;;;;;;;;;5024729;28;20202;-77
2021/11/13 07:35:57;;;;;;;23.98;14.20;;;;;;;;;;5034746;28;20202;-78
2021/11/13 07:38:25;;;;;;;20.77;14.68;;;;;;;;;;5034901;28;20234;-79
2021/11/13 07:40:52;;;;;;;29.13;15.15;;;;;;;;;;5034272;28;20195;-79
2021/11/13 07:43:19;;;;;;;25.20;15.82;;;;;;;;;;5037747;28;20199;-78
2021/11/13 07:45:47;;;;;;;28.88;13.60;;;;;;;;;;5036503;28;20203;-81
2021/11/13 07:48:15;;;;;;;22.00;13.10;;;;;;;;;;5030590;28;20195;-78
2021/11/13 07:50:42;;;;;;;23.70;13.52;;;;;;;;;;5013874;28;20800;-79
2021/11/13 07:53:10;;;;;;;23.23;14.25;;;;;;;;;;5015419;28;20220;-81
2021/11/13 07:55:37;;;;;;;22.75;13.73;;;;;;;;;;5016679;28;20438;-81
2021/11/13 07:58:05;;;;;;;25.27;13.75;;;;;;;;;;5017643;28;20231;-79
2021/11/13 08:00:32;;;;;;;24.73;14.60;;;;;;;;;;5036899;28;20597;-79
2021/11/13 08:03:00;;;;;;;21.38;13.68;;;;;;;;;;5036780;28;20215;-79
2021/11/13 08:05:28;;;;;;;19.85;12.98;;;;;;;;;;5037637;28;20209;-78
2021/11/13 08:07:55;;;;;;;22.63;12.68;;;;;;;;;;5042608;28;20561;-79
2021/11/13 08:10:22;;;;;;;24.83;12.93;;;;;;;;;;5040372;28;20246;-78
2021/11/13 08:12:51;;;;;;;18.93;11.40;;;;;;;;;;5012922;28;20929;-79
2021/11/13 08:15:18;;;;;;;22.67;11.32;;;;;;;;;;5013897;28;20575;-79
2021/11/13 08:17:46;;;;;;;24.17;12.93;;;;;;;;;;5013599;28;20246;-79
2021/11/13 08:20:14;;;;;;;17.90;11.50;;;;;;;;;;5033658;28;20270;-80
2021/11/13 08:22:43;;;;;;;24.25;13.90;;;;;;;;;;5015628;28;20466;-81
2021/11/13 08:25:11;;;;;;;17.45;11.50;;;;;;;;;;5032509;28;20194;-79
2021/11/13 08:27:39;;;;;;;20.13;10.57;;;;;;;;;;5036024;28;20191;-81
2021/11/13 08:30:08;;;;;;;19.87;10.80;;;;;;;;;;5024928;28;20298;-80
2021/11/13 08:32:35;;;;;;;16.63;10.55;;;;;;;;;;5011995;28;20478;-81
2021/11/13 08:35:03;;;;;;;20.17;10.77;;;;;;;;;;4994179;28;20196;-80
2021/11/13 08:37:30;;;;;;;15.80;9.40;;;;;;;;;;5009302;28;20246;-81
2021/11/13 08:39:58;;;;;;;14.17;9.90;;;;;;;;;;5006714;28;20470;-80
2021/11/13 08:42:25;;;;;;;14.60;9.60;;;;;;;;;;5029825;28;20483;-80
2021/11/13 08:44:53;;;;;;;17.50;10.70;;;;;;;;;;5036018;28;20911;-80
2021/11/13 08:47:20;;;;;;;13.00;8.23;;;;;;;;;;5031500;28;20478;-80
2021/11/13 08:49:48;;;;;;;15.98;9.50;;;;;;;;;;5028967;28;20450;-81
2021/11/13 08:52:16;;;;;;;17.70;9.70;;;;;;;;;;5013644;28;20235;-80
2021/11/13 08:54:44;;;;;;;16.07;9.67;;;;;;;;;;5031716;28;20204;-81
2021/11/13 08:57:12;;;;;;;19.20;10.17;;;;;;;;;;5025120;28;20478;-81
2021/11/13 08:59:39;;;;;;;15.70;10.40;;;;;;;;;;5032630;28;20453;-81
2021/11/13 09:02:09;;;;;;;18.33;10.53;;;;;;;;;;5039980;28;20803;-81
2021/11/13 09:04:37;;;;;;;13.80;9.63;;;;;;;;;;5050646;28;20828;-81
2021/11/13 09:07:05;;;;;;;15.37;9.13;;;;;;;;;;5050542;28;20433;-81
2021/11/13 09:09:35;;;;;;;16.40;9.80;;;;;;;;;;5050266;28;20452;-80
2021/11/13 09:12:03;;;;;;;19.87;9.73;;;;;;;;;;5031648;28;20465;-80
2021/11/13 09:14:33;;;;;;;16.00;8.80;;;;;;;;;;5035153;28;20826;-81
2021/11/13 09:17:00;;;;;;;17.20;10.33;;;;;;;;;;5036986;28;20429;-81
2021/11/13 09:19:27;;;;;;;15.60;9.03;;;;;;;;;;5015345;28;20459;-80
2021/11/13 09:21:54;;;;;;;13.93;8.40;;;;;;;;;;5010856;28;20474;-81
2021/11/13 09:24:22;;;;;;;14.30;8.97;;;;;;;;;;5010957;28;20447;-80
2021/11/13 09:26:50;;;;;;;11.13;8.27;;;;;;;;;;5009716;28;20467;-80
2021/11/13 09:29:17;;;;;;;12.20;8.00;;;;;;;;;;5028783;28;20448;-81
2021/11/13 09:31:46;;;;;;;11.97;7.83;;;;;;;;;;5019671;28;20786;-80
2021/11/13 09:34:13;;;;;;;10.90;7.60;;;;;;;;;;5026332;28;20494;-81
2021/11/13 09:36:41;;;;;;;11.83;8.27;;;;;;;;;;5012174;28;20462;-80
2021/11/13 09:39:08;;;;;;;10.83;7.03;;;;;;;;;;5024488;28;20565;-80
2021/11/13 09:41:36;;;;;;;8.17;5.87;;;;;;;;;;5031420;28;20805;-80
2021/11/13 09:44:03;;;;;;;6.30;5.63;;;;;;;;;;5029634;28;20982;-80
2021/11/13 09:49:14;;;;;;;6.77;4.60;;;;;;;;;;5012541;28;20438;-80
2021/11/13 09:51:42;;;;;;;5.57;4.67;;;;;;;;;;5012357;28;20482;-80
2021/11/13 09:54:09;;;;;;;5.43;4.47;;;;;;;;;;5008613;28;20805;-79
2021/11/13 09:56:37;;;;;;;4.70;4.10;;;;;;;;;;5008327;28;20467;-81
2021/11/13 09:59:04;;;;;;;6.37;3.97;;;;;;;;;;5008704;28;20923;-81
2021/11/13 10:01:32;;;;;;;5.10;3.37;;;;;;;;;;5007384;28;20458;-81
2021/11/13 10:03:59;;;;;;;5.17;3.70;;;;;;;;;;4995088;28;21080;-81
2021/11/13 10:06:28;;;;;;;3.93;3.23;;;;;;;;;;4993290;28;20452;-85
2021/11/13 10:08:55;;;;;;;5.70;3.50;;;;;;;;;;5013639;28;20457;-84
2021/11/13 10:11:24;;;;;;;4.93;3.40;;;;;;;;;;5027905;28;20802;-80
2021/11/13 10:13:52;;;;;;;4.30;2.90;;;;;;;;;;5035879;28;20970;-79
2021/11/13 10:16:21;;;;;;;5.03;3.70;;;;;;;;;;4996543;28;20828;-80
2021/11/13 10:18:49;;;;;;;4.03;3.03;;;;;;;;;;5013509;28;20485;-80
2021/11/13 10:21:17;;;;;;;4.00;3.60;;;;;;;;;;5013708;28;20474;-80
2021/11/13 10:23:48;;;;;;;4.63;4.23;;;;;;;;;;5014986;28;20446;-80
2021/11/13 10:26:17;;;;;;;9.20;4.80;;;;;;;;;;5031288;28;20492;-80
2021/11/13 10:28:47;;;;;;;4.50;4.10;;;;;;;;;;5036589;28;21208;-80
2021/11/13 10:31:16;;;;;;;5.80;4.17;;;;;;;;;;5042744;28;20997;-81
2021/11/13 10:33:43;;;;;;;4.07;3.33;;;;;;;;;;5001434;28;20570;-79
2021/11/13 10:36:10;;;;;;;7.30;3.83;;;;;;;;;;5015374;28;20458;-79
2021/11/13 10:38:39;;;;;;;4.63;3.93;;;;;;;;;;5034167;28;20481;-80
2021/11/13 10:41:08;;;;;;;5.00;3.17;;;;;;;;;;5034612;28;21067;-80
2021/11/13 10:43:37;;;;;;;5.87;3.20;;;;;;;;;;5035202;28;20468;-80
2021/11/13 10:46:05;;;;;;;4.07;3.20;;;;;;;;;;5036672;28;20441;-81
2021/11/13 10:48:35;;;;;;;3.60;3.13;;;;;;;;;;5036583;28;20445;-82
2021/11/13 10:51:03;;;;;;;3.60;3.20;;;;;;;;;;5038956;28;20455;-80
2021/11/13 10:53:31;;;;;;;4.17;3.20;;;;;;;;;;5020717;28;20461;-78
2021/11/13 10:56:10;;;;;;;3.53;2.97;;;;;;;;;;5013536;28;20498;-78
2021/11/13 10:58:40;;;;;;;4.40;3.10;;;;;;;;;;5013902;28;20548;-78
2021/11/13 11:01:08;;;;;;;3.63;3.10;;;;;;;;;;5013270;28;20466;-80
2021/11/13 11:03:37;;;;;;;3.10;2.80;;;;;;;;;;5015701;28;21085;-77
2021/11/13 11:06:04;;;;;;;5.57;2.90;;;;;;;;;;5032319;28;21244;-77
2021/11/13 11:08:32;;;;;;;4.10;3.30;;;;;;;;;;5011369;28;20466;-78
2021/11/13 11:11:00;;;;;;;3.70;3.37;;;;;;;;;;5016215;28;20964;-82
2021/11/13 11:13:42;;;;;;;4.00;3.60;;;;;;;;;;5032926;28;20997;-79
2021/11/13 11:16:24;;;;;;;3.20;2.90;;;;;;;;;;5023162;28;20457;-81
2021/11/13 11:18:57;;;;;;;3.60;3.10;;;;;;;;;;5016868;28;20477;-85
2021/11/13 11:21:39;;;;;;;5.07;3.03;;;;;;;;;;5033549;28;20477;-79
2021/11/13 11:24:15;;;;;;;5.97;3.20;;;;;;;;;;5030960;28;20469;-79
2021/11/13 11:26:43;;;;;;;6.50;5.03;;;;;;;;;;5023604;28;20829;-80
2021/11/13 11:29:10;;;;;;;4.67;3.90;;;;;;;;;;5018012;28;20442;-80
2021/11/13 11:31:39;;;;;;;4.27;3.27;;;;;;;;;;5027631;28;20485;-79
2021/11/13 11:34:08;;;;;;;3.57;3.10;;;;;;;;;;5037642;28;20441;-78
2021/11/13 11:36:35;;;;;;;4.20;2.87;;;;;;;;;;5029954;28;20964;-78
2021/11/13 11:39:02;;;;;;;5.67;3.40;;;;;;;;;;5018415;28;20486;-78
2021/11/13 11:41:29;;;;;;;3.47;2.97;;;;;;;;;;5032710;28;20470;-77
2021/11/13 11:43:57;;;;;;;4.40;3.40;;;;;;;;;;5032840;28;20438;-79
2021/11/13 11:46:24;;;;;;;4.13;3.47;;;;;;;;;;5033184;28;20541;-77
2021/11/13 11:48:51;;;;;;;3.20;2.70;;;;;;;;;;5038786;28;20438;-77
2021/11/13 11:51:20;;;;;;;3.10;2.63;;;;;;;;;;5034768;28;20483;-77
2021/11/13 11:53:47;;;;;;;3.10;2.80;;;;;;;;;;5051705;28;20969;-76
2021/11/13 11:56:14;;;;;;;3.33;3.00;;;;;;;;;;5051920;28;20438;-76
2021/11/13 11:58:42;;;;;;;4.20;3.00;;;;;;;;;;5051727;28;20491;-77
2021/11/13 12:01:24;;;;;;;4.00;3.60;;;;;;;;;;5051965;28;20514;-77
2021/11/13 12:03:52;;;;;;;4.40;4.00;;;;;;;;;;5017051;28;20430;-77
2021/11/13 12:06:39;;;;;;;6.20;4.30;;;;;;;;;;5036954;28;21258;-77
2021/11/13 12:09:06;;;;;;;5.50;4.67;;;;;;;;;;5022190;28;20473;-77
2021/11/13 12:11:36;;;;;;;7.33;5.30;;;;;;;;;;5021135;28;20474;-76
2021/11/13 12:14:18;;;;;;;6.67;4.97;;;;;;;;;;5032405;28;20500;-76
2021/11/13 12:16:45;;;;;;;6.60;4.67;;;;;;;;;;5015420;28;20476;-77
2021/11/13 12:19:15;;;;;;;7.97;4.93;;;;;;;;;;5033177;28;20481;-76
2021/11/13 12:21:52;;;;;;;4.80;3.93;;;;;;;;;;5037345;28;20806;-76
2021/11/13 12:24:20;;;;;;;6.00;5.00;;;;;;;;;;5033400;28;20437;-76
2021/11/13 12:26:59;;;;;;;6.30;5.23;;;;;;;;;;5012139;28;20451;-76
2021/11/13 12:29:26;;;;;;;8.47;5.90;;;;;;;;;;5012247;28;20717;-76
2021/11/13 12:31:57;;;;;;;10.13;6.20;;;;;;;;;;5012042;28;20493;-77
2021/11/13 12:34:29;;;;;;;7.93;5.60;;;;;;;;;;5018781;28;20802;-76
2021/11/13 12:37:00;;;;;;;8.70;6.10;;;;;;;;;;5018920;28;20472;-76
2021/11/13 12:39:27;;;;;;;10.40;6.93;;;;;;;;;;5014147;28;20488;-76
2021/11/13 12:42:00;;;;;;;9.97;7.60;;;;;;;;;;5011424;28;20475;-76
2021/11/13 12:44:29;;;;;;;9.23;6.93;;;;;;;;;;5010749;28;20449;-76
2021/11/13 12:47:01;;;;;;;12.90;6.80;;;;;;;;;;5012122;28;20439;-76
2021/11/13 12:49:33;;;;;;;7.33;6.30;;;;;;;;;;5020885;28;20493;-76
2021/11/13 12:52:04;;;;;;;12.77;7.57;;;;;;;;;;5033764;28;20628;-76
2021/11/13 12:54:32;;;;;;;7.87;6.47;;;;;;;;;;5026281;28;20461;-76
2021/11/13 12:57:01;;;;;;;9.20;6.83;;;;;;;;;;5020924;28;20470;-76
2021/11/13 12:59:29;;;;;;;9.43;6.63;;;;;;;;;;5037667;28;20569;-76
2021/11/13 13:01:57;;;;;;;7.23;6.50;;;;;;;;;;5028570;28;20461;-76
2021/11/13 13:04:25;;;;;;;10.47;6.97;;;;;;;;;;5051567;28;20456;-76
2021/11/13 13:06:53;;;;;;;8.63;6.33;;;;;;;;;;5051983;28;20797;-77
2021/11/13 13:09:21;;;;;;;8.63;7.30;;;;;;;;;;5033803;28;21045;-76
2021/11/13 13:11:49;;;;;;;9.07;7.03;;;;;;;;;;5030286;28;20494;-76
2021/11/13 13:14:16;;;;;;;7.67;6.93;;;;;;;;;;5033746;28;20545;-76
2021/11/13 13:16:44;;;;;;;9.30;6.97;;;;;;;;;;5033426;28;20919;-75
2021/11/13 13:19:11;;;;;;;8.97;6.87;;;;;;;;;;5033778;28;20485;-76
2021/11/13 13:21:38;;;;;;;8.33;6.20;;;;;;;;;;5031582;28;20480;-76
2021/11/13 13:24:10;;;;;;;7.00;6.30;;;;;;;;;;5038802;28;20441;-76
2021/11/13 13:26:38;;;;;;;7.90;6.57;;;;;;;;;;5039167;28;20457;-76
2021/11/13 13:29:10;;;;;;;9.20;7.33;;;;;;;;;;5042286;28;20446;-76
2021/11/13 13:31:37;;;;;;;11.00;7.60;;;;;;;;;;5029216;28;20458;-78
2021/11/13 13:34:04;;;;;;;8.67;7.57;;;;;;;;;;5029118;28;20458;-78
2021/11/13 13:36:36;;;;;;;7.70;6.90;;;;;;;;;;5021175;28;20462;-78
2021/11/13 13:39:10;;;;;;;9.67;7.30;;;;;;;;;;5035833;28;20789;-80
2021/11/13 13:41:39;;;;;;;10.43;7.60;;;;;;;;;;5014945;28;20468;-78
2021/11/13 13:44:06;;;;;;;11.17;7.20;;;;;;;;;;5029590;28;20453;-76
2021/11/13 13:46:42;;;;;;;7.70;6.53;;;;;;;;;;5027359;28;20437;-77
2021/11/13 13:49:14;;;;;;;7.67;6.13;;;;;;;;;;5012900;28;20457;-76
2021/11/13 13:51:45;;;;;;;9.23;6.93;;;;;;;;;;5019273;28;20876;-77
2021/11/13 13:54:15;;;;;;;10.53;7.30;;;;;;;;;;5038887;28;20432;-76
2021/11/13 13:56:45;;;;;;;8.10;6.10;;;;;;;;;;5022000;28;20437;-77
2021/11/13 13:59:21;;;;;;;10.10;7.00;;;;;;;;;;5018066;28;20474;-76
2021/11/13 14:01:52;;;;;;;10.20;7.00;;;;;;;;;;5022877;28;20573;-77
2021/11/13 14:04:20;;;;;;;8.27;7.03;;;;;;;;;;5014084;28;20931;-77
2021/11/13 14:06:47;;;;;;;13.17;6.90;;;;;;;;;;5021076;28;20453;-78
2021/11/13 14:09:15;;;;;;;7.87;7.07;;;;;;;;;;5033790;28;20803;-76
2021/11/13 14:11:43;;;;;;;9.93;6.80;;;;;;;;;;5035613;28;20814;-76
2021/11/13 14:14:23;;;;;;;9.20;7.57;;;;;;;;;;5022714;28;20442;-76
2021/11/13 14:16:50;;;;;;;11.20;8.20;;;;;;;;;;5032538;28;20507;-78
2021/11/13 14:19:18;;;;;;;9.30;7.77;;;;;;;;;;5034185;28;20478;-76
2021/11/13 14:21:45;;;;;;;12.27;8.00;;;;;;;;;;5032942;28;20462;-75
2021/11/13 14:24:20;;;;;;;9.10;7.23;;;;;;;;;;5026782;28;20455;-77
2021/11/13 14:26:58;;;;;;;10.10;7.40;;;;;;;;;;5018383;28;20461;-80
2021/11/13 14:29:25;;;;;;;9.77;7.00;;;;;;;;;;5021006;28;20820;-79
2021/11/13 14:31:53;;;;;;;10.87;7.17;;;;;;;;;;5039590;28;20812;-79
2021/11/13 14:34:24;;;;;;;10.00;7.00;;;;;;;;;;5031324;28;20452;-79